Time;durP1;ratioP1;P1;durP2;ratioP2;P2;SDS_P1;SDS_P2;PMS_P1;PMS_P2;Temp;Humidity;BMP_temperature;BMP_pressure;BME280_temperature;BME280_humidity;BME280_pressure;Samples;Min_cycle;Max_cycle;Signal;HPM_P1;HPM_P2
2021/01/06 00:00:48;;;;;;;28.12;17.65;;;;;;;2.51;85.24;99235.70;1758572;81;21076;-65
2021/01/06 00:03:18;;;;;;;27.60;16.85;;;;;;;2.54;85.06;99235.67;1760571;81;21564;-64
2021/01/06 00:05:49;;;;;;;27.35;16.45;;;;;;;2.57;84.98;99234.36;1758049;80;21135;-63
2021/01/06 00:08:17;;;;;;;21.70;15.15;;;;;;;2.57;84.71;99235.20;1753981;81;21057;-63
2021/01/06 00:10:54;;;;;;;22.75;14.90;;;;;;;2.59;84.63;99239.04;1751183;81;21568;-64
2021/01/06 00:13:23;;;;;;;23.90;15.63;;;;;;;2.57;84.27;99226.66;1763909;81;21164;-64
2021/01/06 00:15:51;;;;;;;26.20;16.20;;;;;;;2.52;84.35;99228.42;1683280;84;21211;-65
2021/01/06 00:18:19;;;;;;;26.25;16.55;;;;;;;2.51;84.52;99236.56;1745553;81;21505;-65
2021/01/06 00:20:48;;;;;;;23.02;15.20;;;;;;;2.53;84.45;99240.39;1744125;81;21064;-65
2021/01/06 00:23:16;;;;;;;20.77;14.95;;;;;;;2.55;84.53;99237.38;1747052;81;21710;-65
2021/01/06 00:25:45;;;;;;;23.18;15.25;;;;;;;2.59;84.59;99230.05;1739025;81;21201;-64
2021/01/06 00:28:16;;;;;;;21.82;14.50;;;;;;;2.62;84.31;99239.82;1749339;80;21341;-65
2021/01/06 00:30:47;;;;;;;25.85;14.83;;;;;;;2.63;84.22;99239.39;1759696;81;21135;-66
2021/01/06 00:33:21;;;;;;;22.07;14.15;;;;;;;2.62;84.10;99235.12;1740315;81;21118;-64
2021/01/06 00:35:57;;;;;;;19.98;14.05;;;;;;;2.61;84.06;99238.55;1746258;81;21680;-64
2021/01/06 00:38:27;;;;;;;23.15;14.35;;;;;;;2.64;84.08;99239.37;1738641;81;21068;-64
2021/01/06 00:40:54;;;;;;;25.08;15.35;;;;;;;2.68;84.12;99237.62;1759930;80;21367;-64
2021/01/06 00:43:22;;;;;;;23.25;15.32;;;;;;;2.65;83.88;99238.50;1744070;81;21140;-64
2021/01/06 00:45:50;;;;;;;25.35;16.25;;;;;;;2.64;84.11;99241.94;1743976;81;21115;-64
2021/01/06 00:48:19;;;;;;;25.08;16.48;;;;;;;2.66;84.18;99236.35;1757857;80;21121;-65
2021/01/06 00:50:47;;;;;;;26.82;16.23;;;;;;;2.66;83.96;99234.22;1764156;80;21056;-65
2021/01/06 00:53:21;;;;;;;28.90;17.17;;;;;;;2.63;83.92;99234.25;1749129;80;21359;-64
2021/01/06 00:55:51;;;;;;;30.85;18.42;;;;;;;2.57;84.04;99227.50;1759700;81;21162;-65
2021/01/06 00:58:20;;;;;;;27.75;18.65;;;;;;;2.53;84.43;99229.69;1755947;81;21151;-65
2021/01/06 01:00:48;;;;;;;37.95;19.90;;;;;;;2.53;84.48;99230.97;1742478;81;21139;-65
2021/01/06 01:03:16;;;;;;;34.67;19.67;;;;;;;2.56;84.62;99230.94;1755659;81;21072;-64
2021/01/06 01:05:46;;;;;;;35.00;20.50;;;;;;;2.56;84.40;99224.95;1764062;81;21386;-64
2021/01/06 01:08:13;;;;;;;33.33;20.05;;;;;;;2.51;84.65;99228.01;1760925;81;21140;-65
2021/01/06 01:10:47;;;;;;;36.42;20.48;;;;;;;2.46;84.79;99218.22;1754748;81;21365;-65
2021/01/06 01:13:19;;;;;;;33.08;20.17;;;;;;;2.48;85.05;99226.33;1757913;80;21187;-66
2021/01/06 01:15:50;;;;;;;34.18;20.40;;;;;;;2.51;85.07;99222.87;1759963;80;21124;-65
2021/01/06 01:18:22;;;;;;;39.20;22.05;;;;;;;2.53;84.95;99218.57;1761717;81;21195;-64
2021/01/06 01:20:54;;;;;;;39.10;21.57;;;;;;;2.53;84.94;99230.13;1754445;81;21486;-64
2021/01/06 01:23:24;;;;;;;40.05;22.82;;;;;;;2.50;84.84;99219.45;1751361;81;21572;-64
2021/01/06 01:25:52;;;;;;;41.45;23.18;;;;;;;2.49;85.10;99220.33;1763810;81;21160;-64
2021/01/06 01:28:22;;;;;;;42.05;22.42;;;;;;;2.51;85.20;99222.44;1753673;81;21063;-65
2021/01/06 01:30:52;;;;;;;35.90;22.17;;;;;;;2.53;85.05;99224.55;1755300;81;21257;-64
2021/01/06 01:33:21;;;;;;;35.70;20.37;;;;;;;2.51;85.03;99217.30;1761556;81;21080;-64
2021/01/06 01:35:49;;;;;;;39.88;22.17;;;;;;;2.54;85.19;99208.72;1752036;80;21060;-64
2021/01/06 01:38:20;;;;;;;39.65;22.90;;;;;;;2.56;85.01;99213.40;1764099;81;21750;-65
2021/01/06 01:40:47;;;;;;;40.78;22.52;;;;;;;2.53;85.03;99216.00;1764014;81;21199;-66
2021/01/06 01:43:18;;;;;;;39.92;23.20;;;;;;;2.57;85.25;99216.38;1727921;81;21652;-65
2021/01/06 01:45:55;;;;;;;38.60;22.17;;;;;;;2.61;85.07;99214.16;1764002;80;21073;-64
2021/01/06 01:48:47;;;;;;;35.08;21.52;;;;;;;2.63;85.04;99210.71;1755241;80;21131;-64
2021/01/06 01:51:32;;;;;;;35.23;20.80;;;;;;;2.67;84.92;99217.94;1752348;81;21115;-65
2021/01/06 01:54:04;;;;;;;35.40;21.90;;;;;;;2.64;84.68;99216.27;1738098;81;21051;-64
2021/01/06 01:56:52;;;;;;;37.00;21.60;;;;;;;2.63;84.96;99216.28;1755237;81;21362;-64
2021/01/06 01:59:34;;;;;;;41.15;23.40;;;;;;;2.66;84.97;99219.66;1755568;81;21211;-64
2021/01/06 02:02:23;;;;;;;34.98;21.23;;;;;;;2.70;84.90;99218.75;1759851;81;21612;-65
2021/01/06 02:04:58;;;;;;;35.28;21.15;;;;;;;2.76;84.80;99222.97;1740216;81;21496;-64
2021/01/06 02:07:29;;;;;;;32.90;21.20;;;;;;;2.81;84.73;99226.73;1753447;80;21156;-64
2021/01/06 02:10:16;;;;;;;36.88;22.87;;;;;;;2.85;84.72;99226.67;1739195;81;21194;-65
2021/01/06 02:12:52;;;;;;;33.98;21.05;;;;;;;2.90;84.59;99230.47;1734276;80;21194;-64
2021/01/06 02:15:41;;;;;;;36.80;21.62;;;;;;;2.97;84.46;99228.23;1748325;81;21144;-64
2021/01/06 02:18:09;;;;;;;35.83;21.30;;;;;;;3.00;84.02;99231.58;1764186;81;21555;-64
2021/01/06 02:20:37;;;;;;;39.00;22.50;;;;;;;3.00;83.95;99226.88;1747166;81;21449;-65
2021/01/06 02:23:04;;;;;;;35.78;21.62;;;;;;;2.99;83.94;99230.34;1764020;81;21384;-64
2021/01/06 02:25:32;;;;;;;36.28;21.12;;;;;;;3.03;83.90;99232.82;1758724;80;21063;-65
2021/01/06 02:28:00;;;;;;;34.98;20.88;;;;;;;3.05;83.77;99229.80;1763078;81;21060;-64
2021/01/06 02:30:27;;;;;;;38.40;21.35;;;;;;;3.09;83.56;99231.45;1733923;80;21135;-64
2021/01/06 02:32:55;;;;;;;34.10;20.12;;;;;;;3.09;83.40;99237.88;1745324;80;21048;-65
2021/01/06 02:35:23;;;;;;;36.73;21.05;;;;;;;3.10;83.46;99240.86;1753727;81;21836;-64
2021/01/06 02:37:50;;;;;;;36.65;20.92;;;;;;;3.15;83.47;99246.37;1756907;81;21084;-65
2021/01/06 02:40:18;;;;;;;36.20;21.23;;;;;;;3.19;83.43;99239.89;1738900;81;21063;-64
2021/01/06 02:42:46;;;;;;;34.38;20.88;;;;;;;3.24;83.08;99241.93;1763659;81;21183;-64
2021/01/06 02:45:16;;;;;;;35.88;21.10;;;;;;;3.24;82.79;99244.50;1755399;81;21123;-65
2021/01/06 02:47:44;;;;;;;31.20;20.43;;;;;;;3.23;82.87;99242.80;1760151;81;21199;-65
2021/01/06 02:50:12;;;;;;;33.18;20.43;;;;;;;3.26;82.76;99240.63;1710356;81;21160;-65
2021/01/06 02:52:58;;;;;;;34.67;20.45;;;;;;;3.27;82.83;99237.18;1742986;81;21079;-66
2021/01/06 02:55:26;;;;;;;35.28;21.42;;;;;;;3.29;82.74;99236.28;1744381;81;21156;-64
2021/01/06 02:57:54;;;;;;;34.53;20.12;;;;;;;3.31;82.68;99237.11;1722199;81;21678;-65
2021/01/06 03:00:26;;;;;;;35.23;20.32;;;;;;;3.33;82.50;99240.52;1743559;81;22215;-64
2021/01/06 03:02:53;;;;;;;30.95;19.27;;;;;;;3.32;82.28;99240.53;1751664;80;21216;-64
2021/01/06 03:05:42;;;;;;;36.85;20.20;;;;;;;3.30;82.13;99240.55;1753162;81;21210;-64
2021/01/06 03:08:13;;;;;;;33.15;19.95;;;;;;;3.28;82.27;99242.73;1751548;81;21261;-65
2021/01/06 03:10:41;;;;;;;36.00;20.95;;;;;;;3.27;82.14;99240.59;1763971;81;21116;-64
2021/01/06 03:13:08;;;;;;;39.63;21.62;;;;;;;3.22;82.14;99242.82;1764032;81;21151;-64
2021/01/06 03:15:36;;;;;;;32.80;19.37;;;;;;;3.19;82.27;99244.17;1740619;81;21059;-65
2021/01/06 03:18:05;;;;;;;33.08;20.55;;;;;;;3.17;82.22;99246.77;1741348;81;21110;-64
2021/01/06 03:20:37;;;;;;;32.70;19.77;;;;;;;3.16;82.40;99246.79;1764099;81;21119;-63
2021/01/06 03:23:27;;;;;;;32.30;20.90;;;;;;;3.19;82.42;99249.31;1746776;81;21099;-63
2021/01/06 03:25:57;;;;;;;32.75;19.37;;;;;;;3.20;82.48;99245.41;1763302;81;21856;-64
2021/01/06 03:28:24;;;;;;;34.70;21.23;;;;;;;3.25;82.53;99246.20;1739561;81;21140;-65
2021/01/06 03:30:52;;;;;;;34.15;19.42;;;;;;;3.29;82.36;99245.28;1740541;81;21080;-64
2021/01/06 03:33:39;;;;;;;32.13;18.55;;;;;;;3.32;82.14;99249.53;1764061;81;21080;-64
2021/01/06 03:36:18;;;;;;;33.95;19.52;;;;;;;3.32;81.97;99244.39;1751807;81;21124;-64
2021/01/06 03:38:51;;;;;;;38.73;20.70;;;;;;;3.32;82.01;99237.96;1741950;81;21373;-65
2021/01/06 03:41:18;;;;;;;30.20;19.35;;;;;;;3.33;82.14;99245.66;1759077;81;21167;-65
2021/01/06 03:43:50;;;;;;;36.77;22.02;;;;;;;3.36;82.07;99243.47;1751470;81;21119;-65
2021/01/06 03:46:27;;;;;;;31.37;19.02;;;;;;;3.35;81.88;99243.06;1740968;81;21493;-65
2021/01/06 03:49:05;;;;;;;36.53;19.50;;;;;;;3.32;81.96;99245.23;1724083;81;21219;-65
2021/01/06 03:51:53;;;;;;;33.33;19.92;;;;;;;3.35;81.94;99240.05;1704336;81;21388;-65
2021/01/06 03:54:35;;;;;;;31.02;19.52;;;;;;;3.32;81.99;99237.52;1747080;81;21637;-65
2021/01/06 03:57:03;;;;;;;33.75;21.82;;;;;;;3.30;81.97;99238.42;1755485;81;21580;-65
2021/01/06 03:59:33;;;;;;;29.40;18.12;;;;;;;3.24;82.12;99233.36;1730383;80;21441;-64
2021/01/06 04:02:22;;;;;;;30.60;19.25;;;;;;;3.22;82.12;99237.24;1753786;81;21025;-64
2021/01/06 04:04:58;;;;;;;34.15;19.30;;;;;;;3.19;82.15;99233.47;1752962;81;21441;-64
2021/01/06 04:07:36;;;;;;;36.93;19.25;;;;;;;3.13;82.41;99239.13;1743088;81;21118;-64
2021/01/06 04:10:12;;;;;;;35.03;20.60;;;;;;;3.13;82.62;99237.41;1749954;80;21127;-65
2021/01/06 04:12:40;;;;;;;32.65;19.00;;;;;;;3.11;82.66;99243.84;1761017;81;21105;-65
2021/01/06 04:15:10;;;;;;;33.38;19.52;;;;;;;3.14;82.76;99249.81;1760054;81;21699;-64
2021/01/06 04:17:40;;;;;;;32.58;18.62;;;;;;;3.16;82.68;99253.22;1758728;81;22209;-64
2021/01/06 04:20:28;;;;;;;32.38;18.62;;;;;;;3.17;82.65;99262.63;1723401;80;21071;-65
2021/01/06 04:22:59;;;;;;;30.95;19.45;;;;;;;3.17;82.68;99254.91;1763255;81;21052;-66
2021/01/06 04:25:38;;;;;;;31.75;19.37;;;;;;;3.20;82.66;99249.73;1764440;80;21112;-65
2021/01/06 04:28:14;;;;;;;34.85;19.82;;;;;;;3.21;82.71;99253.97;1758453;81;21488;-65
2021/01/06 04:30:50;;;;;;;32.90;18.57;;;;;;;3.24;82.62;99260.35;1758800;81;21416;-64
2021/01/06 04:33:39;;;;;;;31.52;18.98;;;;;;;3.21;82.45;99266.38;1754035;81;21620;-65
2021/01/06 04:36:20;;;;;;;32.90;20.35;;;;;;;3.20;82.64;99276.25;1750284;81;21147;-65
2021/01/06 04:38:50;;;;;;;36.23;19.77;;;;;;;3.23;82.74;99273.64;1763561;81;21168;-64
2021/01/06 04:41:29;;;;;;;30.00;18.82;;;;;;;3.27;82.66;99274.02;1763143;81;21266;-65
2021/01/06 04:44:32;;;;;;;33.53;18.25;;;;;;;3.27;82.42;99269.30;1756980;81;22096;-65
2021/01/06 04:47:29;;;;;;;29.07;17.57;;;;;;;3.25;82.43;99270.61;1758943;81;21085;-66
2021/01/06 04:50:26;;;;;;;29.50;18.12;;;;;;;3.25;82.51;99278.76;1727927;81;21131;-65
2021/01/06 04:53:19;;;;;;;31.05;18.17;;;;;;;3.29;82.50;99276.13;1751716;81;21099;-65
2021/01/06 04:55:55;;;;;;;27.58;17.15;;;;;;;3.31;82.44;99282.53;1744714;81;21997;-65
2021/01/06 04:58:59;;;;;;;27.75;16.85;;;;;;;3.32;82.30;99277.37;1761836;81;21313;-64
2021/01/06 05:01:48;;;;;;;33.55;17.95;;;;;;;3.33;82.18;99288.50;1732713;81;21477;-64
2021/01/06 05:04:42;;;;;;;28.30;16.57;;;;;;;3.33;82.06;99290.64;1744238;81;21472;-64
2021/01/06 05:07:59;;;;;;;24.43;16.25;;;;;;;3.35;82.09;99293.19;1751944;81;21091;-64
2021/01/06 05:10:35;;;;;;;30.43;17.32;;;;;;;3.35;82.06;99281.62;1738712;81;21044;-65
2021/01/06 05:13:29;;;;;;;28.60;17.65;;;;;;;3.34;82.19;99284.63;1751174;81;21363;-63
2021/01/06 05:16:19;;;;;;;29.20;18.10;;;;;;;3.37;82.07;99294.87;1739436;80;21511;-64
2021/01/06 05:18:46;;;;;;;26.35;16.73;;;;;;;3.41;82.07;99291.78;1755664;81;21457;-65
2021/01/06 05:21:20;;;;;;;27.55;17.12;;;;;;;3.45;81.85;99294.73;1740196;81;21974;-65
2021/01/06 05:23:50;;;;;;;32.73;16.77;;;;;;;3.47;81.76;99299.41;1741522;81;21057;-65
2021/01/06 05:26:17;;;;;;;28.62;16.93;;;;;;;3.49;81.63;99301.96;1759691;81;21368;-65
2021/01/06 05:28:47;;;;;;;28.25;16.85;;;;;;;3.48;81.60;99315.25;1744234;81;21134;-65
2021/01/06 05:31:14;;;;;;;24.82;16.50;;;;;;;3.48;81.66;99315.25;1755348;81;21668;-65
2021/01/06 05:33:46;;;;;;;33.15;21.90;;;;;;;3.49;81.80;99316.11;1759798;80;21200;-64
2021/01/06 05:36:17;;;;;;;32.95;18.77;;;;;;;3.51;81.87;99324.65;1761113;81;21584;-65
2021/01/06 05:38:44;;;;;;;31.42;18.30;;;;;;;3.51;81.81;99320.36;1764066;81;22308;-65
2021/01/06 05:41:11;;;;;;;31.45;17.80;;;;;;;3.53;81.92;99321.63;1755534;81;21195;-64
2021/01/06 05:43:45;;;;;;;31.52;17.82;;;;;;;3.56;81.93;99310.00;1739941;81;21075;-65
2021/01/06 05:46:26;;;;;;;29.77;18.95;;;;;;;3.58;81.80;99321.13;1760033;81;21572;-65
2021/01/06 05:49:04;;;;;;;34.98;18.85;;;;;;;3.61;81.76;99321.89;1741021;81;21167;-65
2021/01/06 05:51:35;;;;;;;56.28;27.87;;;;;;;3.63;81.75;99318.02;1731735;80;21159;-65
2021/01/06 05:54:20;;;;;;;31.55;19.32;;;;;;;3.63;81.75;99325.30;1743331;81;21197;-64
2021/01/06 05:57:04;;;;;;;34.08;20.10;;;;;;;3.62;81.72;99327.89;1764990;80;21604;-65
2021/01/06 05:59:50;;;;;;;32.25;19.07;;;;;;;3.61;81.96;99329.61;1762437;80;21089;-64
2021/01/06 06:03:00;;;;;;;34.08;18.75;;;;;;;3.63;82.02;99327.02;1755605;81;21039;-65
2021/01/06 06:05:58;;;;;;;31.77;19.40;;;;;;;3.66;81.98;99328.26;1757783;81;21250;-65
2021/01/06 06:08:52;;;;;;;37.15;20.23;;;;;;;3.66;81.86;99335.97;1763076;81;21072;-67
2021/01/06 06:11:50;;;;;;;36.00;25.20;;;;;;;3.66;81.85;99339.39;1764035;81;21065;-66
2021/01/06 06:14:53;;;;;;;38.33;21.52;;;;;;;3.60;81.88;99339.91;1757970;80;21152;-66
2021/01/06 06:17:35;;;;;;;31.52;20.95;;;;;;;3.52;81.91;99346.48;1754517;81;21035;-66
2021/01/06 06:20:48;;;;;;;31.65;19.30;;;;;;;3.50;82.24;99344.37;1747281;81;21534;-66
2021/01/06 06:23:49;;;;;;;34.18;22.02;;;;;;;3.50;82.09;99348.66;1738826;81;21134;-67
2021/01/06 06:26:35;;;;;;;32.48;19.98;;;;;;;3.34;82.34;99349.33;1758621;81;21326;-66
2021/01/06 06:29:29;;;;;;;31.00;20.75;;;;;;;3.32;82.72;99349.78;1758527;81;21075;-67
2021/01/06 06:31:58;;;;;;;27.87;17.60;;;;;;;3.36;83.12;99350.16;1763906;81;21485;-66
2021/01/06 06:34:40;;;;;;;27.45;18.30;;;;;;;3.42;83.52;99357.33;1763136;81;22321;-66
2021/01/06 06:37:17;;;;;;;32.35;19.15;;;;;;;3.51;83.82;99370.50;1762388;81;21172;-67
2021/01/06 06:39:58;;;;;;;31.23;20.12;;;;;;;3.60;83.35;99365.63;1749500;81;21682;-68
2021/01/06 06:42:32;;;;;;;35.40;20.72;;;;;;;3.61;82.85;99368.19;1755226;81;21116;-66
2021/01/06 06:45:40;;;;;;;32.75;21.20;;;;;;;3.58;82.72;99370.83;1750587;81;21585;-64
2021/01/06 06:48:55;;;;;;;29.90;18.60;;;;;;;3.57;82.95;99372.98;1745521;81;21379;-68
2021/01/06 06:51:33;;;;;;;35.85;20.85;;;;;;;3.53;82.93;99366.62;1756237;80;21566;-63
2021/01/06 06:54:24;;;;;;;34.18;20.80;;;;;;;3.52;83.11;99371.34;1743892;81;21215;-67
2021/01/06 06:57:00;;;;;;;34.10;20.97;;;;;;;3.50;82.89;99364.09;1764070;81;21532;-66
2021/01/06 07:00:13;;;;;;;42.00;22.98;;;;;;;3.54;83.23;99368.31;1873545;76;22240;-68
2021/01/06 07:02:49;;;;;;;33.18;19.35;;;;;;;3.51;83.12;99374.79;1841537;77;21129;-66
2021/01/06 07:05:46;;;;;;;34.05;21.02;;;;;;;3.52;83.26;99375.20;1841523;77;21397;-62
2021/01/06 07:08:37;;;;;;;38.13;20.75;;;;;;;3.57;83.26;99372.14;1841496;78;21032;-65
2021/01/06 07:11:25;;;;;;;35.15;21.52;;;;;;;3.63;83.26;99371.59;1840723;78;21072;-65
2021/01/06 07:14:22;;;;;;;33.73;20.95;;;;;;;3.73;83.03;99377.45;1841539;78;21033;-66
2021/01/06 07:17:04;;;;;;;36.88;21.50;;;;;;;3.79;82.79;99374.80;1841540;78;20880;-66
2021/01/06 07:19:49;;;;;;;35.60;20.43;;;;;;;3.84;82.54;99372.98;1841776;78;23583;-66
2021/01/06 07:22:36;;;;;;;29.92;18.50;;;;;;;3.93;82.25;99366.85;1873376;76;22689;-65
2021/01/06 07:25:21;;;;;;;36.03;20.35;;;;;;;3.92;81.92;99380.15;1841207;78;21081;-66
2021/01/06 07:27:53;;;;;;;30.27;18.30;;;;;;;3.95;81.77;99380.55;1841510;78;21103;-67
2021/01/06 07:30:37;;;;;;;29.82;19.90;;;;;;;3.97;81.64;99375.79;1841447;78;21081;-67
2021/01/06 07:36:23;;;;;;;31.73;22.40;;;;;;;4.04;81.64;99371.37;1815855;77;27834;-68
2021/01/06 07:38:51;;;;;;;26.95;18.82;;;;;;;4.07;81.45;99370.89;1802695;79;21162;-66
2021/01/06 07:41:20;;;;;;;29.42;19.57;;;;;;;4.17;81.35;99378.03;1803258;78;21378;-65
2021/01/06 07:44:08;;;;;;;28.23;19.10;;;;;;;4.23;81.21;99375.77;1803877;79;21570;-66
2021/01/06 07:47:00;;;;;;;29.85;19.35;;;;;;;4.26;80.92;99377.00;1775974;79;21559;-65
2021/01/06 07:49:48;;;;;;;21.45;15.48;;;;;;;4.25;80.73;99386.45;1772224;79;21023;-65
2021/01/06 07:52:34;;;;;;;20.72;14.53;;;;;;;4.28;80.47;99381.25;1772226;79;21130;-65
2021/01/06 07:55:19;;;;;;;21.00;14.90;;;;;;;4.31;80.39;99384.22;1771803;79;21380;-65
2021/01/06 07:58:18;;;;;;;23.22;14.95;;;;;;;4.35;80.33;99385.43;1741899;81;21198;-65
2021/01/06 08:01:01;;;;;;;19.37;14.18;;;;;;;4.38;80.25;99389.68;1772147;81;21527;-64
2021/01/06 08:03:43;;;;;;;21.15;13.72;;;;;;;4.34;80.44;99385.45;1771504;81;21133;-65
2021/01/06 08:06:10;;;;;;;22.22;14.47;;;;;;;4.32;80.25;99391.91;1771385;79;21122;-65
2021/01/06 08:08:50;;;;;;;24.07;17.48;;;;;;;4.36;80.34;99394.86;1771121;79;21343;-66
2021/01/06 08:11:21;;;;;;;23.32;16.32;;;;;;;4.44;80.49;99395.98;1770531;81;21517;-66
2021/01/06 08:13:55;;;;;;;25.40;17.25;;;;;;;4.49;80.33;99401.47;1771471;79;21087;-65
2021/01/06 08:16:44;;;;;;;25.30;16.23;;;;;;;4.48;80.30;99402.79;1772314;81;21503;-66
2021/01/06 08:19:20;;;;;;;26.85;16.95;;;;;;;4.47;80.19;99407.09;1742350;81;21570;-65
2021/01/06 08:22:15;;;;;;;24.65;14.60;;;;;;;4.37;80.38;99404.28;1771698;81;21213;-65
2021/01/06 08:25:03;;;;;;;21.82;13.83;;;;;;;4.39;80.55;99397.38;1768053;81;21177;-65
2021/01/06 08:27:40;;;;;;;23.87;14.95;;;;;;;4.45;80.50;99401.11;1772038;81;21079;-66
2021/01/06 08:30:51;;;;;;;33.23;19.07;;;;;;;4.48;80.53;99400.21;1744245;81;21074;-67
2021/01/06 08:33:19;;;;;;;26.77;16.80;;;;;;;4.50;80.37;99413.48;1749209;81;21221;-64
2021/01/06 08:35:49;;;;;;;26.93;17.27;;;;;;;4.51;80.25;99409.17;1748131;80;22154;-72
2021/01/06 08:38:31;;;;;;;25.57;14.85;;;;;;;4.50;80.45;99410.90;1748981;80;21122;-63
2021/01/06 08:41:20;;;;;;;26.93;16.65;;;;;;;4.50;80.19;99415.20;1749436;80;21055;-62
2021/01/06 08:43:48;;;;;;;32.28;19.12;;;;;;;4.43;80.45;99418.75;1749264;82;21121;-65
2021/01/06 08:46:24;;;;;;;26.68;17.48;;;;;;;4.36;80.66;99414.61;1748781;80;21150;-69
2021/01/06 08:48:51;;;;;;;27.02;16.50;;;;;;;4.33;80.77;99416.79;1748569;82;21357;-69
2021/01/06 08:51:33;;;;;;;34.15;18.25;;;;;;;4.31;80.83;99413.39;1748651;82;21052;-67
2021/01/06 08:54:19;;;;;;;26.15;17.23;;;;;;;4.25;80.94;99411.34;1748140;82;21074;-64
2021/01/06 08:56:48;;;;;;;24.45;15.32;;;;;;;4.27;81.34;99415.59;1719355;82;21073;-73
2021/01/06 08:59:26;;;;;;;30.77;16.70;;;;;;;4.30;81.46;99420.70;1695957;82;21129;-67
2021/01/06 09:01:58;;;;;;;34.90;17.48;;;;;;;4.38;81.56;99420.14;1748729;82;21413;-67
2021/01/06 09:04:41;;;;;;;38.95;23.18;;;;;;;4.43;81.31;99420.89;1719476;82;21158;-67
2021/01/06 09:07:24;;;;;;;29.12;18.45;;;;;;;4.38;81.46;99424.44;1748856;80;21071;-67
2021/01/06 09:10:12;;;;;;;;;;;;;;;4.44;81.81;99421.73;1751325;82;21063;-67
2021/01/06 09:13:11;;;;;;;25.37;16.70;;;;;;;4.55;81.38;99420.28;1748821;80;20223;-66
2021/01/06 09:15:53;;;;;;;38.88;19.62;;;;;;;4.59;81.43;99429.66;1731321;81;21371;-66
2021/01/06 09:18:35;;;;;;;25.62;16.40;;;;;;;4.63;81.06;99423.11;1740228;81;21630;-66
2021/01/06 09:21:21;;;;;;;28.00;15.80;;;;;;;4.59;81.25;99430.50;1771024;81;21173;-67
2021/01/06 09:23:53;;;;;;;29.02;17.30;;;;;;;4.63;81.33;99426.97;1741937;79;21499;-67
2021/01/06 09:26:24;;;;;;;22.82;15.58;;;;;;;4.72;81.24;99429.39;1771704;79;21487;-66
2021/01/06 09:29:05;;;;;;;23.12;13.70;;;;;;;4.78;80.94;99421.56;1741600;81;21492;-66
2021/01/06 09:31:44;;;;;;;23.85;16.45;;;;;;;4.83;80.86;99432.61;1771697;81;21182;-66
2021/01/06 09:34:14;;;;;;;25.00;15.75;;;;;;;4.87;80.50;99426.11;1771478;79;21221;-66
2021/01/06 09:36:42;;;;;;;18.10;13.03;;;;;;;4.90;80.47;99422.19;1741910;81;21051;-66
2021/01/06 09:39:18;;;;;;;18.20;13.60;;;;;;;4.94;80.70;99419.97;1741802;81;21071;-67
2021/01/06 09:41:45;;;;;;;20.00;13.90;;;;;;;4.99;80.40;99422.03;1771508;80;21368;-67
2021/01/06 09:44:13;;;;;;;18.70;13.32;;;;;;;5.01;80.35;99422.37;1741629;81;21107;-68
2021/01/06 09:46:54;;;;;;;21.50;14.10;;;;;;;5.06;80.27;99421.86;1771453;81;21083;-67
2021/01/06 09:49:29;;;;;;;19.27;12.90;;;;;;;5.10;80.21;99434.25;1771396;80;21051;-67
2021/01/06 09:52:01;;;;;;;20.50;14.80;;;;;;;5.14;80.19;99417.41;1771653;81;21118;-66
2021/01/06 09:54:28;;;;;;;16.85;12.85;;;;;;;5.24;80.17;99423.20;1771557;81;22323;-65
2021/01/06 09:56:56;;;;;;;17.80;13.05;;;;;;;5.38;80.00;99431.53;1741815;81;21257;-65
2021/01/06 09:59:31;;;;;;;18.70;12.80;;;;;;;5.50;79.40;99420.94;1771439;79;21141;-66
2021/01/06 10:02:06;;;;;;;17.70;12.33;;;;;;;5.54;78.98;99417.41;1771520;79;21149;-66
2021/01/06 10:04:39;;;;;;;14.53;11.40;;;;;;;5.61;78.59;99414.67;1769641;81;21075;-66
2021/01/06 10:07:27;;;;;;;14.50;11.35;;;;;;;5.65;78.54;99411.15;1718089;81;22357;-67
2021/01/06 10:10:15;;;;;;;15.18;12.37;;;;;;;5.72;78.36;99407.12;1771518;81;21141;-65
2021/01/06 10:13:12;;;;;;;15.55;13.62;;;;;;;5.79;78.25;99415.14;1770689;79;21082;-64
2021/01/06 10:16:03;;;;;;;19.05;14.87;;;;;;;5.83;77.93;99414.16;1707045;81;21079;-67
2021/01/06 10:18:54;;;;;;;17.45;13.25;;;;;;;5.83;77.97;99420.61;1771612;81;21063;-67
2021/01/06 10:21:55;;;;;;;13.48;11.40;;;;;;;5.91;77.54;99417.05;1749353;80;22104;-68
2021/01/06 10:25:12;;;;;;;15.30;12.13;;;;;;;5.90;77.15;99416.20;1748629;82;21519;-69
2021/01/06 10:27:44;;;;;;;12.95;10.45;;;;;;;5.88;76.91;99420.10;1747526;82;21035;-69
2021/01/06 10:30:17;;;;;;;14.58;11.70;;;;;;;5.86;76.54;99406.79;1717738;80;21166;-68
2021/01/06 10:32:51;;;;;;;;;;;;;;;5.87;76.63;99401.59;1751270;80;21210;-67
2021/01/06 10:35:37;;;;;;;10.13;8.30;;;;;;;5.90;76.00;99405.87;1748571;80;22260;-68
2021/01/06 10:38:27;;;;;;;14.23;9.98;;;;;;;5.85;75.58;99404.65;1748649;82;21170;-68
2021/01/06 10:41:25;;;;;;;14.03;10.03;;;;;;;5.92;75.72;99413.59;1751628;80;21236;-68
2021/01/06 10:43:57;;;;;;;11.68;8.88;;;;;;;5.94;75.24;99427.31;1770966;80;21180;-68
2021/01/06 10:46:51;;;;;;;12.50;9.40;;;;;;;5.79;75.51;99434.50;1773600;80;21164;-67
2021/01/06 10:49:24;;;;;;;12.70;9.43;;;;;;;5.73;75.31;99444.95;1774423;80;21414;-68
2021/01/06 10:52:10;;;;;;;13.45;9.98;;;;;;;5.54;75.41;99450.10;1773894;80;21141;-69
2021/01/06 10:54:54;;;;;;;14.85;10.50;;;;;;;5.40;76.05;99451.66;1773589;80;21161;-68
2021/01/06 10:57:48;;;;;;;12.82;9.73;;;;;;;5.27;76.25;99455.83;1720889;83;21197;-68
2021/01/06 11:00:26;;;;;;;11.55;8.40;;;;;;;5.18;76.77;99454.30;1705885;84;21206;-67
2021/01/06 11:03:16;;;;;;;11.85;9.58;;;;;;;5.18;76.89;99451.72;1731672;81;21381;-67
2021/01/06 11:06:07;;;;;;;12.28;9.85;;;;;;;5.22;77.26;99449.46;1732610;81;21760;-67
2021/01/06 11:08:53;;;;;;;13.83;10.95;;;;;;;5.29;77.08;99454.91;1713251;83;21504;-69
2021/01/06 11:11:44;;;;;;;14.98;11.08;;;;;;;5.25;77.08;99457.58;1720263;83;21599;-67
2021/01/06 11:14:49;;;;;;;13.48;11.57;;;;;;;5.13;77.31;99452.23;1720959;83;21044;-67
2021/01/06 11:17:29;;;;;;;12.28;10.05;;;;;;;5.09;77.42;99450.16;1719465;83;21396;-67
2021/01/06 11:20:06;;;;;;;12.78;10.18;;;;;;;5.07;77.75;99451.91;1716703;83;21231;-67
2021/01/06 11:22:43;;;;;;;13.45;11.97;;;;;;;5.02;77.69;99452.87;1715965;83;21169;-67
2021/01/06 11:25:40;;;;;;;13.05;11.00;;;;;;;4.93;77.96;99456.93;1719931;83;21120;-68
2021/01/06 11:28:46;;;;;;;12.43;10.65;;;;;;;4.83;78.21;99459.66;1719944;83;21186;-67
2021/01/06 11:31:24;;;;;;;12.80;10.35;;;;;;;4.74;78.56;99452.56;1717900;83;22693;-68
2021/01/06 11:33:58;;;;;;;15.65;12.33;;;;;;;4.66;78.95;99451.83;1718741;83;21071;-68
2021/01/06 11:36:47;;;;;;;19.67;14.38;;;;;;;4.65;79.32;99462.58;1719586;80;21107;-67
2021/01/06 11:39:42;;;;;;;13.32;10.35;;;;;;;4.67;79.66;99465.98;1722076;83;21075;-67
2021/01/06 11:42:21;;;;;;;10.18;8.18;;;;;;;4.70;79.78;99467.22;1721685;83;21055;-68
2021/01/06 11:45:13;;;;;;;10.32;8.45;;;;;;;4.77;79.40;99469.25;1721195;83;21519;-67
2021/01/06 11:47:58;;;;;;;11.00;9.40;;;;;;;4.76;79.40;99468.84;1676708;85;21691;-67
2021/01/06 11:50:44;;;;;;;12.78;10.55;;;;;;;4.83;79.50;99471.70;1684055;83;21209;-68
2021/01/06 11:53:28;;;;;;;14.78;10.68;;;;;;;4.82;79.03;99479.86;1687289;85;21523;-67
2021/01/06 11:56:25;;;;;;;13.48;9.90;;;;;;;4.77;79.16;99481.70;1659729;86;21618;-68
2021/01/06 11:59:30;;;;;;;11.73;9.70;;;;;;;4.74;79.33;99477.03;1687212;85;22294;-67
2021/01/06 12:02:28;;;;;;;13.68;9.45;;;;;;;4.69;79.31;99486.12;1687285;83;21193;-67
2021/01/06 12:05:23;;;;;;;14.30;10.40;;;;;;;4.67;79.28;99483.16;1686578;83;21678;-66
2021/01/06 12:08:17;;;;;;;11.35;8.18;;;;;;;4.64;79.27;99484.50;1671581;84;21086;-67
2021/01/06 12:11:05;;;;;;;8.88;7.12;;;;;;;4.59;79.21;99479.45;1674166;85;21141;-66
2021/01/06 12:13:50;;;;;;;11.43;9.60;;;;;;;4.48;79.22;99480.90;1621360;87;21405;-67
2021/01/06 12:16:34;;;;;;;11.33;9.10;;;;;;;4.41;79.62;99479.73;1644160;87;21214;-66
2021/01/06 12:19:11;;;;;;;10.23;8.10;;;;;;;4.47;80.07;99474.05;1644766;87;21268;-68
2021/01/06 12:22:03;;;;;;;8.55;7.45;;;;;;;4.55;79.70;99474.37;1645397;87;21079;-70
2021/01/06 12:24:38;;;;;;;9.85;8.53;;;;;;;4.56;79.57;99482.07;1645503;85;21111;-67
2021/01/06 12:27:34;;;;;;;11.28;8.83;;;;;;;4.53;79.40;99470.97;1645387;87;21672;-68